sensor_id;sensor_type;location;lat;lon;timestamp;temperature;humidity
32787;DHT22;19139;49.372;8.580;2023-02-15T00:01:52;18.10;85.10
32787;DHT22;19139;49.372;8.580;2023-02-15T00:04:25;18.00;85.00
32787;DHT22;19139;49.372;8.580;2023-02-15T00:07:16;18.10;85.00
32787;DHT22;19139;49.372;8.580;2023-02-15T00:09:45;18.10;85.00
32787;DHT22;19139;49.372;8.580;2023-02-15T00:12:12;18.10;85.10
32787;DHT22;19139;49.372;8.580;2023-02-15T00:14:43;18.10;85.00
32787;DHT22;19139;49.372;8.580;2023-02-15T00:17:10;18.10;85.10
32787;DHT22;19139;49.372;8.580;2023-02-15T00:19:42;18.10;85.10
32787;DHT22;19139;49.372;8.580;2023-02-15T00:22:13;18.00;85.00
32787;DHT22;19139;49.372;8.580;2023-02-15T00:24:40;18.00;85.00
32787;DHT22;19139;49.372;8.580;2023-02-15T00:27:12;18.10;85.00
32787;DHT22;19139;49.372;8.580;2023-02-15T00:29:43;18.00;85.00
32787;DHT22;19139;49.372;8.580;2023-02-15T00:32:10;18.00;85.00
32787;DHT22;19139;49.372;8.580;2023-02-15T00:34:41;18.00;84.90
32787;DHT22;19139;49.372;8.580;2023-02-15T00:37:13;18.10;85.00
32787;DHT22;19139;49.372;8.580;2023-02-15T00:39:44;18.00;85.00
32787;DHT22;19139;49.372;8.580;2023-02-15T00:42:11;18.00;84.90
32787;DHT22;19139;49.372;8.580;2023-02-15T00:44:42;18.10;85.00
32787;DHT22;19139;49.372;8.580;2023-02-15T00:47:13;18.10;85.00
32787;DHT22;19139;49.372;8.580;2023-02-15T00:49:40;18.00;84.90
32787;DHT22;19139;49.372;8.580;2023-02-15T00:52:11;18.10;85.00
32787;DHT22;19139;49.372;8.580;2023-02-15T00:54:43;18.10;85.00
32787;DHT22;19139;49.372;8.580;2023-02-15T00:57:09;18.10;85.00
32787;DHT22;19139;49.372;8.580;2023-02-15T00:59:41;18.10;85.00
32787;DHT22;19139;49.372;8.580;2023-02-15T01:02:12;18.00;84.90
32787;DHT22;19139;49.372;8.580;2023-02-15T01:04:44;18.00;85.00
32787;DHT22;19139;49.372;8.580;2023-02-15T01:07:10;18.00;84.90
32787;DHT22;19139;49.372;8.580;2023-02-15T01:09:42;18.00;85.00
32787;DHT22;19139;49.372;8.580;2023-02-15T01:12:13;18.00;85.00
32787;DHT22;19139;49.372;8.580;2023-02-15T01:14:40;18.00;85.00
32787;DHT22;19139;49.372;8.580;2023-02-15T01:17:11;18.00;84.90
32787;DHT22;19139;49.372;8.580;2023-02-15T01:19:43;18.00;84.90
32787;DHT22;19139;49.372;8.580;2023-02-15T01:22:10;18.00;84.90
32787;DHT22;19139;49.372;8.580;2023-02-15T01:24:36;18.00;84.90
32787;DHT22;19139;49.372;8.580;2023-02-15T01:27:03;18.00;84.90
32787;DHT22;19139;49.372;8.580;2023-02-15T01:29:30;18.00;84.90
32787;DHT22;19139;49.372;8.580;2023-02-15T01:32:01;18.00;84.90
32787;DHT22;19139;49.372;8.580;2023-02-15T01:34:33;18.00;84.90
32787;DHT22;19139;49.372;8.580;2023-02-15T01:37:04;18.00;84.90
32787;DHT22;19139;49.372;8.580;2023-02-15T01:39:31;18.00;84.90
32787;DHT22;19139;49.372;8.580;2023-02-15T01:42:03;18.00;84.90
32787;DHT22;19139;49.372;8.580;2023-02-15T01:45:02;18.00;84.90
32787;DHT22;19139;49.372;8.580;2023-02-15T01:50:56;18.00;84.90
32787;DHT22;19139;49.372;8.580;2023-02-15T01:53:34;18.00;84.90
32787;DHT22;19139;49.372;8.580;2023-02-15T01:56:13;18.00;84.90
32787;DHT22;19139;49.372;8.580;2023-02-15T01:58:42;18.00;84.90
32787;DHT22;19139;49.372;8.580;2023-02-15T02:01:13;18.00;84.90
32787;DHT22;19139;49.372;8.580;2023-02-15T02:06:16;18.00;84.90
32787;DHT22;19139;49.372;8.580;2023-02-15T02:08:43;18.00;84.90
32787;DHT22;19139;49.372;8.580;2023-02-15T02:11:11;18.00;84.90
32787;DHT22;19139;49.372;8.580;2023-02-15T02:13:40;18.00;84.90
32787;DHT22;19139;49.372;8.580;2023-02-15T02:16:16;18.00;84.90
32787;DHT22;19139;49.372;8.580;2023-02-15T02:30:53;18.00;84.90
32787;DHT22;19139;49.372;8.580;2023-02-15T02:36:42;18.00;84.90
32787;DHT22;19139;49.372;8.580;2023-02-15T02:44:17;18.00;84.90
32787;DHT22;19139;49.372;8.580;2023-02-15T02:46:56;18.00;84.90
32787;DHT22;19139;49.372;8.580;2023-02-15T02:49:36;17.90;84.80
32787;DHT22;19139;49.372;8.580;2023-02-15T02:52:31;18.00;84.90
32787;DHT22;19139;49.372;8.580;2023-02-15T02:54:53;17.90;84.80
32787;DHT22;19139;49.372;8.580;2023-02-15T02:57:22;17.90;84.80
32787;DHT22;19139;49.372;8.580;2023-02-15T02:59:50;18.00;84.90
32787;DHT22;19139;49.372;8.580;2023-02-15T03:02:24;18.00;84.90
32787;DHT22;19139;49.372;8.580;2023-02-15T03:04:58;17.90;84.70
32787;DHT22;19139;49.372;8.580;2023-02-15T03:07:31;18.00;84.90
32787;DHT22;19139;49.372;8.580;2023-02-15T03:09:59;17.90;84.80
32787;DHT22;19139;49.372;8.580;2023-02-15T03:12:35;17.90;84.80
32787;DHT22;19139;49.372;8.580;2023-02-15T03:17:39;18.00;84.90
32787;DHT22;19139;49.372;8.580;2023-02-15T03:20:21;17.90;84.70
32787;DHT22;19139;49.372;8.580;2023-02-15T03:22:55;17.90;84.70
32787;DHT22;19139;49.372;8.580;2023-02-15T03:25:27;18.00;85.60
32787;DHT22;19139;49.372;8.580;2023-02-15T03:28:05;17.90;84.70
32787;DHT22;19139;49.372;8.580;2023-02-15T03:30:35;17.90;84.80
32787;DHT22;19139;49.372;8.580;2023-02-15T03:33:03;18.00;84.80
32787;DHT22;19139;49.372;8.580;2023-02-15T03:35:52;17.90;84.70
32787;DHT22;19139;49.372;8.580;2023-02-15T03:38:35;17.90;84.70
32787;DHT22;19139;49.372;8.580;2023-02-15T03:41:04;18.00;84.90
32787;DHT22;19139;49.372;8.580;2023-02-15T03:43:59;18.00;84.80
32787;DHT22;19139;49.372;8.580;2023-02-15T03:46:41;17.90;84.80
32787;DHT22;19139;49.372;8.580;2023-02-15T03:49:22;17.90;84.80
32787;DHT22;19139;49.372;8.580;2023-02-15T03:51:51;17.90;84.80
32787;DHT22;19139;49.372;8.580;2023-02-15T03:54:27;17.90;84.70
32787;DHT22;19139;49.372;8.580;2023-02-15T04:00:12;18.00;84.90
32787;DHT22;19139;49.372;8.580;2023-02-15T04:05:44;17.90;84.70
32787;DHT22;19139;49.372;8.580;2023-02-15T04:08:11;17.90;84.70
32787;DHT22;19139;49.372;8.580;2023-02-15T04:10:38;17.90;84.70
32787;DHT22;19139;49.372;8.580;2023-02-15T04:13:23;18.00;84.80
32787;DHT22;19139;49.372;8.580;2023-02-15T04:15:50;17.90;84.70
32787;DHT22;19139;49.372;8.580;2023-02-15T04:18:30;18.00;84.80
32787;DHT22;19139;49.372;8.580;2023-02-15T04:21:16;17.90;84.70
32787;DHT22;19139;49.372;8.580;2023-02-15T04:24:01;18.00;84.80
32787;DHT22;19139;49.372;8.580;2023-02-15T04:26:47;18.00;84.80
32787;DHT22;19139;49.372;8.580;2023-02-15T04:29:24;17.90;84.70
32787;DHT22;19139;49.372;8.580;2023-02-15T04:31:53;17.90;84.70
32787;DHT22;19139;49.372;8.580;2023-02-15T04:34:20;17.90;84.70
32787;DHT22;19139;49.372;8.580;2023-02-15T04:36:47;17.90;84.70
32787;DHT22;19139;49.372;8.580;2023-02-15T04:39:15;17.90;84.70
32787;DHT22;19139;49.372;8.580;2023-02-15T04:41:42;17.90;84.70
32787;DHT22;19139;49.372;8.580;2023-02-15T04:44:14;17.90;84.70
32787;DHT22;19139;49.372;8.580;2023-02-15T04:46:41;17.90;84.70
32787;DHT22;19139;49.372;8.580;2023-02-15T04:49:08;17.90;84.70
32787;DHT22;19139;49.372;8.580;2023-02-15T04:51:35;17.90;84.70
32787;DHT22;19139;49.372;8.580;2023-02-15T04:54:01;17.90;84.70
32787;DHT22;19139;49.372;8.580;2023-02-15T04:56:28;17.90;84.70
32787;DHT22;19139;49.372;8.580;2023-02-15T04:58:56;17.90;84.70
32787;DHT22;19139;49.372;8.580;2023-02-15T05:01:22;17.90;84.70
32787;DHT22;19139;49.372;8.580;2023-02-15T05:03:54;17.90;84.70
32787;DHT22;19139;49.372;8.580;2023-02-15T05:06:21;17.90;84.70
32787;DHT22;19139;49.372;8.580;2023-02-15T05:08:47;17.90;84.70
32787;DHT22;19139;49.372;8.580;2023-02-15T05:11:14;17.90;84.80
32787;DHT22;19139;49.372;8.580;2023-02-15T05:13:41;17.90;84.70
32787;DHT22;19139;49.372;8.580;2023-02-15T05:16:07;17.90;84.70
32787;DHT22;19139;49.372;8.580;2023-02-15T05:18:34;17.90;84.70
32787;DHT22;19139;49.372;8.580;2023-02-15T05:21:01;17.90;84.70
32787;DHT22;19139;49.372;8.580;2023-02-15T05:23:27;17.90;84.70
32787;DHT22;19139;49.372;8.580;2023-02-15T05:25:54;17.90;84.70
32787;DHT22;19139;49.372;8.580;2023-02-15T05:28:44;17.90;84.70
32787;DHT22;19139;49.372;8.580;2023-02-15T05:31:13;17.90;84.70
32787;DHT22;19139;49.372;8.580;2023-02-15T05:33:40;17.90;84.80
32787;DHT22;19139;49.372;8.580;2023-02-15T05:36:08;17.90;84.70
32787;DHT22;19139;49.372;8.580;2023-02-15T05:38:35;17.90;84.70
32787;DHT22;19139;49.372;8.580;2023-02-15T05:41:05;17.90;84.70
32787;DHT22;19139;49.372;8.580;2023-02-15T05:43:32;17.90;84.70
32787;DHT22;19139;49.372;8.580;2023-02-15T05:46:04;17.90;84.70
32787;DHT22;19139;49.372;8.580;2023-02-15T05:48:32;17.90;84.70
32787;DHT22;19139;49.372;8.580;2023-02-15T05:51:06;17.90;84.70
32787;DHT22;19139;49.372;8.580;2023-02-15T05:53:34;17.90;84.70
32787;DHT22;19139;49.372;8.580;2023-02-15T05:56:02;17.90;84.70
32787;DHT22;19139;49.372;8.580;2023-02-15T05:58:33;17.90;84.70
32787;DHT22;19139;49.372;8.580;2023-02-15T06:01:06;17.90;84.70
32787;DHT22;19139;49.372;8.580;2023-02-15T06:03:33;17.90;84.70
32787;DHT22;19139;49.372;8.580;2023-02-15T06:06:00;17.90;84.70
32787;DHT22;19139;49.372;8.580;2023-02-15T06:08:27;17.90;84.70
32787;DHT22;19139;49.372;8.580;2023-02-15T06:10:53;17.90;84.70
32787;DHT22;19139;49.372;8.580;2023-02-15T06:13:20;17.90;84.70
32787;DHT22;19139;49.372;8.580;2023-02-15T06:15:47;17.90;84.80
32787;DHT22;19139;49.372;8.580;2023-02-15T06:18:14;17.90;84.70
32787;DHT22;19139;49.372;8.580;2023-02-15T06:20:40;17.90;84.70
32787;DHT22;19139;49.372;8.580;2023-02-15T06:23:07;17.90;84.70
32787;DHT22;19139;49.372;8.580;2023-02-15T06:25:33;17.90;84.70
32787;DHT22;19139;49.372;8.580;2023-02-15T06:28:02;17.90;84.70
32787;DHT22;19139;49.372;8.580;2023-02-15T06:30:34;17.90;85.20
32787;DHT22;19139;49.372;8.580;2023-02-15T06:33:00;17.90;84.70
32787;DHT22;19139;49.372;8.580;2023-02-15T06:35:27;17.90;84.70
32787;DHT22;19139;49.372;8.580;2023-02-15T06:37:54;17.90;84.80
32787;DHT22;19139;49.372;8.580;2023-02-15T06:40:20;17.90;84.80
32787;DHT22;19139;49.372;8.580;2023-02-15T06:42:47;17.90;84.90
32787;DHT22;19139;49.372;8.580;2023-02-15T06:45:14;17.90;84.80
32787;DHT22;19139;49.372;8.580;2023-02-15T06:47:40;17.90;84.80
32787;DHT22;19139;49.372;8.580;2023-02-15T06:50:08;17.90;84.90
32787;DHT22;19139;49.372;8.580;2023-02-15T06:52:35;17.90;84.90
32787;DHT22;19139;49.372;8.580;2023-02-15T06:55:01;17.00;81.20
32787;DHT22;19139;49.372;8.580;2023-02-15T06:57:33;15.80;81.60
32787;DHT22;19139;49.372;8.580;2023-02-15T07:00:00;15.20;82.60
32787;DHT22;19139;49.372;8.580;2023-02-15T07:02:26;15.00;82.90
32787;DHT22;19139;49.372;8.580;2023-02-15T07:04:53;15.20;83.50
32787;DHT22;19139;49.372;8.580;2023-02-15T07:07:20;15.80;83.60
32787;DHT22;19139;49.372;8.580;2023-02-15T07:09:46;16.30;84.40
32787;DHT22;19139;49.372;8.580;2023-02-15T07:12:13;16.60;84.60
32787;DHT22;19139;49.372;8.580;2023-02-15T07:15:03;16.90;84.20
32787;DHT22;19139;49.372;8.580;2023-02-15T07:17:33;17.00;84.10
32787;DHT22;19139;49.372;8.580;2023-02-15T07:20:04;17.10;84.10
32787;DHT22;19139;49.372;8.580;2023-02-15T07:22:31;17.20;84.20
32787;DHT22;19139;49.372;8.580;2023-02-15T07:25:00;17.30;84.30
32787;DHT22;19139;49.372;8.580;2023-02-15T07:27:26;17.40;84.50
32787;DHT22;19139;49.372;8.580;2023-02-15T07:29:53;17.40;84.60
32787;DHT22;19139;49.372;8.580;2023-02-15T07:32:20;17.40;84.70
32787;DHT22;19139;49.372;8.580;2023-02-15T07:34:46;17.50;84.90
32787;DHT22;19139;49.372;8.580;2023-02-15T07:37:13;17.50;84.90
32787;DHT22;19139;49.372;8.580;2023-02-15T07:39:39;17.50;84.90
32787;DHT22;19139;49.372;8.580;2023-02-15T07:42:06;17.60;85.00
32787;DHT22;19139;49.372;8.580;2023-02-15T07:44:33;17.60;85.20
32787;DHT22;19139;49.372;8.580;2023-02-15T07:47:04;17.60;85.30
32787;DHT22;19139;49.372;8.580;2023-02-15T07:49:31;17.60;85.40
32787;DHT22;19139;49.372;8.580;2023-02-15T07:51:57;17.70;85.60
32787;DHT22;19139;49.372;8.580;2023-02-15T07:54:24;17.70;85.60
32787;DHT22;19139;49.372;8.580;2023-02-15T07:56:50;17.70;85.70
32787;DHT22;19139;49.372;8.580;2023-02-15T07:59:17;17.70;85.90
32787;DHT22;19139;49.372;8.580;2023-02-15T08:01:44;17.80;86.10
32787;DHT22;19139;49.372;8.580;2023-02-15T08:04:10;17.70;86.10
32787;DHT22;19139;49.372;8.580;2023-02-15T08:06:38;17.80;86.30
32787;DHT22;19139;49.372;8.580;2023-02-15T08:09:07;17.80;86.30
32787;DHT22;19139;49.372;8.580;2023-02-15T08:11:36;17.80;86.40
32787;DHT22;19139;49.372;8.580;2023-02-15T08:14:18;17.80;86.40
32787;DHT22;19139;49.372;8.580;2023-02-15T08:16:47;17.80;86.20
32787;DHT22;19139;49.372;8.580;2023-02-15T08:19:17;17.80;86.10
32787;DHT22;19139;49.372;8.580;2023-02-15T08:21:47;17.80;86.00
32787;DHT22;19139;49.372;8.580;2023-02-15T08:24:16;17.80;86.00
32787;DHT22;19139;49.372;8.580;2023-02-15T08:26:43;17.80;85.90
32787;DHT22;19139;49.372;8.580;2023-02-15T08:29:14;17.80;85.80
32787;DHT22;19139;49.372;8.580;2023-02-15T08:31:41;17.80;85.80
32787;DHT22;19139;49.372;8.580;2023-02-15T08:34:09;17.80;85.90
32787;DHT22;19139;49.372;8.580;2023-02-15T08:36:37;17.80;86.10
32787;DHT22;19139;49.372;8.580;2023-02-15T08:39:05;17.80;86.20
32787;DHT22;19139;49.372;8.580;2023-02-15T08:41:35;17.90;86.40
32787;DHT22;19139;49.372;8.580;2023-02-15T08:44:05;17.90;86.60
32787;DHT22;19139;49.372;8.580;2023-02-15T08:46:34;17.90;86.60
32787;DHT22;19139;49.372;8.580;2023-02-15T08:49:02;17.90;86.70
32787;DHT22;19139;49.372;8.580;2023-02-15T08:51:31;17.90;86.80
32787;DHT22;19139;49.372;8.580;2023-02-15T08:54:00;18.00;87.00
32787;DHT22;19139;49.372;8.580;2023-02-15T08:56:31;18.00;87.20
32787;DHT22;19139;49.372;8.580;2023-02-15T08:58:58;17.90;87.20
32787;DHT22;19139;49.372;8.580;2023-02-15T09:01:30;18.00;87.40
32787;DHT22;19139;49.372;8.580;2023-02-15T09:04:03;18.00;87.40
32787;DHT22;19139;49.372;8.580;2023-02-15T09:06:30;18.00;87.40
32787;DHT22;19139;49.372;8.580;2023-02-15T09:08:57;18.00;87.50
32787;DHT22;19139;49.372;8.580;2023-02-15T09:11:29;18.00;87.50
32787;DHT22;19139;49.372;8.580;2023-02-15T09:13:59;18.10;87.70
32787;DHT22;19139;49.372;8.580;2023-02-15T09:16:29;18.00;87.70
32787;DHT22;19139;49.372;8.580;2023-02-15T09:18:56;18.00;87.70
32787;DHT22;19139;49.372;8.580;2023-02-15T09:21:35;18.00;87.90
32787;DHT22;19139;49.372;8.580;2023-02-15T09:24:04;18.10;88.00
32787;DHT22;19139;49.372;8.580;2023-02-15T09:26:33;18.10;88.10
32787;DHT22;19139;49.372;8.580;2023-02-15T09:29:01;18.10;88.30
32787;DHT22;19139;49.372;8.580;2023-02-15T09:31:32;18.10;88.30
32787;DHT22;19139;49.372;8.580;2023-02-15T09:34:03;18.10;88.30
32787;DHT22;19139;49.372;8.580;2023-02-15T09:36:35;18.10;88.30
32787;DHT22;19139;49.372;8.580;2023-02-15T09:39:17;18.10;88.30
32787;DHT22;19139;49.372;8.580;2023-02-15T09:42:10;18.10;88.40
32787;DHT22;19139;49.372;8.580;2023-02-15T09:51:17;18.20;88.70
32787;DHT22;19139;49.372;8.580;2023-02-15T09:54:44;18.20;88.70
32787;DHT22;19139;49.372;8.580;2023-02-15T09:56:51;18.20;88.70
32787;DHT22;19139;49.372;8.580;2023-02-15T09:59:43;18.20;88.80
32787;DHT22;19139;49.372;8.580;2023-02-15T10:05:32;18.20;88.90
32787;DHT22;19139;49.372;8.580;2023-02-15T10:11:15;18.20;88.50
32787;DHT22;19139;49.372;8.580;2023-02-15T10:20:23;18.20;88.20
32787;DHT22;19139;49.372;8.580;2023-02-15T10:28:47;18.20;88.50
32787;DHT22;19139;49.372;8.580;2023-02-15T10:31:33;18.20;88.60
32787;DHT22;19139;49.372;8.580;2023-02-15T10:50:53;18.20;89.00
32787;DHT22;19139;49.372;8.580;2023-02-15T10:56:36;18.30;89.20
32787;DHT22;19139;49.372;8.580;2023-02-15T11:04:45;18.30;89.30
32787;DHT22;19139;49.372;8.580;2023-02-15T11:07:26;18.30;89.50
32787;DHT22;19139;49.372;8.580;2023-02-15T11:10:10;18.30;89.50
32787;DHT22;19139;49.372;8.580;2023-02-15T11:12:44;18.30;89.50
32787;DHT22;19139;49.372;8.580;2023-02-15T11:15:33;18.30;89.50
32787;DHT22;19139;49.372;8.580;2023-02-15T11:20:52;18.30;89.60
32787;DHT22;19139;49.372;8.580;2023-02-15T11:23:20;18.30;89.40
32787;DHT22;19139;49.372;8.580;2023-02-15T11:26:01;18.40;89.00
32787;DHT22;19139;49.372;8.580;2023-02-15T11:28:38;18.40;89.30
32787;DHT22;19139;49.372;8.580;2023-02-15T11:31:42;18.40;89.40
32787;DHT22;19139;49.372;8.580;2023-02-15T11:34:35;18.40;89.60
32787;DHT22;19139;49.372;8.580;2023-02-15T11:37:06;18.40;89.60
32787;DHT22;19139;49.372;8.580;2023-02-15T11:39:38;18.40;89.70
32787;DHT22;19139;49.372;8.580;2023-02-15T11:42:14;18.40;89.60
32787;DHT22;19139;49.372;8.580;2023-02-15T11:45:04;18.40;89.70
32787;DHT22;19139;49.372;8.580;2023-02-15T11:47:38;18.40;89.60
32787;DHT22;19139;49.372;8.580;2023-02-15T11:50:20;18.40;89.60
32787;DHT22;19139;49.372;8.580;2023-02-15T11:52:58;18.40;89.60
32787;DHT22;19139;49.372;8.580;2023-02-15T11:55:30;18.40;89.60
32787;DHT22;19139;49.372;8.580;2023-02-15T12:03:54;18.40;89.70
32787;DHT22;19139;49.372;8.580;2023-02-15T12:06:29;18.40;89.80
32787;DHT22;19139;49.372;8.580;2023-02-15T12:09:07;18.40;89.80
32787;DHT22;19139;49.372;8.580;2023-02-15T12:11:42;18.50;89.80
32787;DHT22;19139;49.372;8.580;2023-02-15T12:14:14;18.50;89.80
32787;DHT22;19139;49.372;8.580;2023-02-15T12:16:53;18.50;90.00
32787;DHT22;19139;49.372;8.580;2023-02-15T12:19:32;18.50;90.00
32787;DHT22;19139;49.372;8.580;2023-02-15T12:22:05;18.50;90.00
32787;DHT22;19139;49.372;8.580;2023-02-15T12:24:38;18.50;90.00
32787;DHT22;19139;49.372;8.580;2023-02-15T12:27:26;18.50;89.90
32787;DHT22;19139;49.372;8.580;2023-02-15T12:30:03;18.50;90.00
32787;DHT22;19139;49.372;8.580;2023-02-15T12:32:51;18.50;89.90
32787;DHT22;19139;49.372;8.580;2023-02-15T12:35:32;18.50;90.00
32787;DHT22;19139;49.372;8.580;2023-02-15T12:38:02;18.50;90.00
32787;DHT22;19139;49.372;8.580;2023-02-15T12:40:34;18.50;89.80
32787;DHT22;19139;49.372;8.580;2023-02-15T12:43:27;18.50;89.60
32787;DHT22;19139;49.372;8.580;2023-02-15T12:49:19;18.50;88.40
32787;DHT22;19139;49.372;8.580;2023-02-15T12:51:53;18.50;88.40
32787;DHT22;19139;49.372;8.580;2023-02-15T12:54:40;18.60;88.60
32787;DHT22;19139;49.372;8.580;2023-02-15T12:57:22;18.60;88.80
32787;DHT22;19139;49.372;8.580;2023-02-15T12:59:59;18.50;89.70
32787;DHT22;19139;49.372;8.580;2023-02-15T13:02:53;18.50;89.00
32787;DHT22;19139;49.372;8.580;2023-02-15T13:05:36;18.60;89.20
32787;DHT22;19139;49.372;8.580;2023-02-15T13:11:08;18.60;89.30
32787;DHT22;19139;49.372;8.580;2023-02-15T13:13:53;18.60;89.20
32787;DHT22;19139;49.372;8.580;2023-02-15T13:16:37;18.60;89.40
32787;DHT22;19139;49.372;8.580;2023-02-15T13:19:26;18.60;89.40
32787;DHT22;19139;49.372;8.580;2023-02-15T13:22:06;18.60;89.40
32787;DHT22;19139;49.372;8.580;2023-02-15T13:24:46;18.70;89.50
32787;DHT22;19139;49.372;8.580;2023-02-15T13:27:21;18.70;89.60
32787;DHT22;19139;49.372;8.580;2023-02-15T13:29:54;18.70;89.50
32787;DHT22;19139;49.372;8.580;2023-02-15T13:32:34;18.60;89.30
32787;DHT22;19139;49.372;8.580;2023-02-15T13:35:04;18.60;89.20
32787;DHT22;19139;49.372;8.580;2023-02-15T13:40:18;18.60;89.10
32787;DHT22;19139;49.372;8.580;2023-02-15T13:43:02;18.60;89.00
32787;DHT22;19139;49.372;8.580;2023-02-15T13:46:06;18.70;88.90
32787;DHT22;19139;49.372;8.580;2023-02-15T13:54:53;18.70;88.50
32787;DHT22;19139;49.372;8.580;2023-02-15T14:06:00;18.90;88.70
32787;DHT22;19139;49.372;8.580;2023-02-15T14:17:15;18.90;89.00
32787;DHT22;19139;49.372;8.580;2023-02-15T14:19:52;18.90;89.00
32787;DHT22;19139;49.372;8.580;2023-02-15T14:22:26;19.00;89.10
32787;DHT22;19139;49.372;8.580;2023-02-15T14:25:20;19.00;89.10
32787;DHT22;19139;49.372;8.580;2023-02-15T14:28:12;19.00;89.20
32787;DHT22;19139;49.372;8.580;2023-02-15T14:30:49;19.00;89.20
32787;DHT22;19139;49.372;8.580;2023-02-15T14:33:37;19.00;89.30
32787;DHT22;19139;49.372;8.580;2023-02-15T14:36:15;19.00;89.30
32787;DHT22;19139;49.372;8.580;2023-02-15T14:39:17;19.10;89.40
32787;DHT22;19139;49.372;8.580;2023-02-15T14:42:24;19.10;89.50
32787;DHT22;19139;49.372;8.580;2023-02-15T14:48:31;19.10;89.60
32787;DHT22;19139;49.372;8.580;2023-02-15T14:50:54;18.90;84.80
32787;DHT22;19139;49.372;8.580;2023-02-15T14:56:15;18.80;89.00
32787;DHT22;19139;49.372;8.580;2023-02-15T15:01:33;19.00;88.40
32787;DHT22;19139;49.372;8.580;2023-02-15T15:04:21;19.00;88.20
32787;DHT22;19139;49.372;8.580;2023-02-15T15:09:38;19.10;88.10
32787;DHT22;19139;49.372;8.580;2023-02-15T15:15:02;19.00;88.00
32787;DHT22;19139;49.372;8.580;2023-02-15T15:20:11;19.10;87.90
32787;DHT22;19139;49.372;8.580;2023-02-15T15:22:43;19.10;87.80
32787;DHT22;19139;49.372;8.580;2023-02-15T15:28:01;19.10;87.80
32787;DHT22;19139;49.372;8.580;2023-02-15T15:33:29;19.10;87.80
32787;DHT22;19139;49.372;8.580;2023-02-15T15:50:32;19.10;87.70
32787;DHT22;19139;49.372;8.580;2023-02-15T15:53:02;19.00;87.60
32787;DHT22;19139;49.372;8.580;2023-02-15T15:55:34;19.10;87.70
32787;DHT22;19139;49.372;8.580;2023-02-15T15:58:07;19.00;87.50
32787;DHT22;19139;49.372;8.580;2023-02-15T16:00:58;19.10;87.60
32787;DHT22;19139;49.372;8.580;2023-02-15T16:03:27;19.00;87.50
32787;DHT22;19139;49.372;8.580;2023-02-15T16:05:59;19.00;87.50
32787;DHT22;19139;49.372;8.580;2023-02-15T16:08:38;19.10;87.60
32787;DHT22;19139;49.372;8.580;2023-02-15T16:11:14;19.00;87.50
32787;DHT22;19139;49.372;8.580;2023-02-15T16:13:47;19.00;87.40
32787;DHT22;19139;49.372;8.580;2023-02-15T16:16:24;19.00;87.50
32787;DHT22;19139;49.372;8.580;2023-02-15T16:18:57;19.00;87.50
32787;DHT22;19139;49.372;8.580;2023-02-15T16:21:33;19.00;87.40
32787;DHT22;19139;49.372;8.580;2023-02-15T16:27:03;19.00;87.50
32787;DHT22;19139;49.372;8.580;2023-02-15T16:29:39;19.00;87.50
32787;DHT22;19139;49.372;8.580;2023-02-15T16:32:24;18.90;87.40
32787;DHT22;19139;49.372;8.580;2023-02-15T16:34:59;19.00;87.50
32787;DHT22;19139;49.372;8.580;2023-02-15T16:37:30;18.90;87.40
32787;DHT22;19139;49.372;8.580;2023-02-15T16:39:58;18.90;87.40
32787;DHT22;19139;49.372;8.580;2023-02-15T16:42:25;18.90;87.40
32787;DHT22;19139;49.372;8.580;2023-02-15T16:44:58;18.90;87.40
32787;DHT22;19139;49.372;8.580;2023-02-15T16:47:30;18.90;87.40
32787;DHT22;19139;49.372;8.580;2023-02-15T16:50:00;18.90;87.40
32787;DHT22;19139;49.372;8.580;2023-02-15T16:52:28;18.90;87.40
32787;DHT22;19139;49.372;8.580;2023-02-15T16:55:01;18.90;87.50
32787;DHT22;19139;49.372;8.580;2023-02-15T16:57:32;18.90;87.40
32787;DHT22;19139;49.372;8.580;2023-02-15T17:00:18;18.80;87.30
32787;DHT22;19139;49.372;8.580;2023-02-15T17:03:03;18.80;87.40
32787;DHT22;19139;49.372;8.580;2023-02-15T17:05:49;18.80;87.30
32787;DHT22;19139;49.372;8.580;2023-02-15T17:08:19;18.80;87.40
32787;DHT22;19139;49.372;8.580;2023-02-15T17:13:30;18.80;87.50
32787;DHT22;19139;49.372;8.580;2023-02-15T17:18:43;18.80;87.50
32787;DHT22;19139;49.372;8.580;2023-02-15T17:21:25;18.80;87.60
32787;DHT22;19139;49.372;8.580;2023-02-15T17:24:02;18.80;87.60
32787;DHT22;19139;49.372;8.580;2023-02-15T17:26:36;18.80;87.60
32787;DHT22;19139;49.372;8.580;2023-02-15T17:32:01;18.80;87.60
32787;DHT22;19139;49.372;8.580;2023-02-15T17:34:49;18.80;87.60
32787;DHT22;19139;49.372;8.580;2023-02-15T17:37:29;18.70;87.60
32787;DHT22;19139;49.372;8.580;2023-02-15T17:40:19;18.80;87.60
32787;DHT22;19139;49.372;8.580;2023-02-15T17:42:51;18.70;87.50
32787;DHT22;19139;49.372;8.580;2023-02-15T17:45:26;18.70;87.50
32787;DHT22;19139;49.372;8.580;2023-02-15T17:48:03;18.70;87.50
32787;DHT22;19139;49.372;8.580;2023-02-15T17:50:35;18.70;87.50
32787;DHT22;19139;49.372;8.580;2023-02-15T17:53:08;18.70;87.50
32787;DHT22;19139;49.372;8.580;2023-02-15T17:55:40;18.70;87.60
32787;DHT22;19139;49.372;8.580;2023-02-15T17:58:14;18.70;87.50
32787;DHT22;19139;49.372;8.580;2023-02-15T18:00:43;18.70;87.50
32787;DHT22;19139;49.372;8.580;2023-02-15T18:06:23;18.70;87.50
32787;DHT22;19139;49.372;8.580;2023-02-15T18:09:17;18.70;87.50
32787;DHT22;19139;49.372;8.580;2023-02-15T18:12:23;18.70;87.50
32787;DHT22;19139;49.372;8.580;2023-02-15T18:14:50;18.70;87.50
32787;DHT22;19139;49.372;8.580;2023-02-15T18:17:18;18.70;87.50
32787;DHT22;19139;49.372;8.580;2023-02-15T18:19:47;18.70;87.50
32787;DHT22;19139;49.372;8.580;2023-02-15T18:22:16;18.70;87.60
32787;DHT22;19139;49.372;8.580;2023-02-15T18:24:44;18.70;87.50
32787;DHT22;19139;49.372;8.580;2023-02-15T18:27:12;18.70;87.50
32787;DHT22;19139;49.372;8.580;2023-02-15T18:29:39;18.60;87.50
32787;DHT22;19139;49.372;8.580;2023-02-15T18:32:08;18.70;87.50
32787;DHT22;19139;49.372;8.580;2023-02-15T18:34:37;18.70;87.50
32787;DHT22;19139;49.372;8.580;2023-02-15T18:37:09;18.60;87.50
32787;DHT22;19139;49.372;8.580;2023-02-15T18:39:48;18.60;87.50
32787;DHT22;19139;49.372;8.580;2023-02-15T18:42:24;18.60;87.50
32787;DHT22;19139;49.372;8.580;2023-02-15T18:44:55;18.60;87.50
32787;DHT22;19139;49.372;8.580;2023-02-15T18:47:22;18.60;87.40
32787;DHT22;19139;49.372;8.580;2023-02-15T18:49:54;18.60;87.40
32787;DHT22;19139;49.372;8.580;2023-02-15T18:52:23;18.60;87.40
32787;DHT22;19139;49.372;8.580;2023-02-15T18:54:53;18.60;87.30
32787;DHT22;19139;49.372;8.580;2023-02-15T18:57:21;18.60;87.30
32787;DHT22;19139;49.372;8.580;2023-02-15T18:59:47;18.60;87.40
32787;DHT22;19139;49.372;8.580;2023-02-15T19:02:16;18.60;87.30
32787;DHT22;19139;49.372;8.580;2023-02-15T19:04:44;18.50;87.30
32787;DHT22;19139;49.372;8.580;2023-02-15T19:07:17;18.60;87.30